Aviation Digital Data Service (ADDS)

Output produced by METARs form (0929 UTC 26 January 2020)
found at http://www.aviationweather.gov/metar/data/
 
KNYL 260857Z AUTO 05005KT 10SM CLR 12/03 A3006 RMK AO2 SLP178 T01170033 $
TAF KNYL 2603/2703 VRB05KT 9999 SKC QNH2992INS AUTOMATED SENSOR METWATCH 2603
TIL 2714 T24/2523Z T10/2614Z